createdAt,value
2019-01-17T05:00:57.819Z,11.40
2019-01-17T05:01:57.683Z,6.30
2019-01-17T05:03:50.351Z,6.90
2019-01-17T05:04:50.241Z,6.40
2019-01-17T05:06:42.928Z,7.60
2019-01-17T05:07:42.801Z,6.80
2019-01-17T05:09:35.467Z,6.60
2019-01-17T05:10:35.343Z,7.30
2019-01-17T05:12:28.038Z,7.20
2019-01-17T05:13:27.894Z,7.00
2019-01-17T05:15:20.566Z,7.70
2019-01-17T05:16:20.437Z,7.90
2019-01-17T05:18:13.101Z,7.20
2019-01-17T05:19:12.992Z,7.80
2019-01-17T05:21:05.662Z,8.10
2019-01-17T05:22:05.546Z,7.70
2019-01-17T05:23:58.198Z,7.50
2019-01-17T05:24:58.088Z,8.10
2019-01-17T05:26:50.755Z,8.30
2019-01-17T05:27:50.633Z,8.40
2019-01-17T05:29:43.290Z,8.50
2019-01-17T05:30:43.189Z,8.50
2019-01-17T05:32:36.829Z,8.90
2019-01-17T05:33:35.730Z,8.40
2019-01-17T05:35:28.396Z,8.70
2019-01-17T05:36:28.273Z,9.30
2019-01-17T05:38:20.930Z,8.60
2019-01-17T05:39:20.815Z,8.90
2019-01-17T05:41:13.492Z,8.60
2019-01-17T05:42:13.363Z,9.20
2019-01-17T05:44:06.032Z,9.20
2019-01-17T05:45:05.918Z,8.80
2019-01-17T05:46:58.592Z,9.70
2019-01-17T05:47:58.472Z,8.90
2019-01-17T05:49:51.143Z,9.80
2019-01-17T05:50:51.016Z,9.70
2019-01-17T05:52:43.679Z,10.40
2019-01-17T05:53:43.567Z,9.60
2019-01-17T05:55:36.252Z,9.60
2019-01-17T05:56:36.109Z,9.30
2019-01-17T05:58:28.770Z,9.70
2019-01-17T05:59:29.129Z,9.30
2019-01-17T06:01:21.330Z,10.40
2019-01-17T06:02:21.200Z,10.00
2019-01-17T06:04:13.866Z,9.50
2019-01-17T06:05:13.748Z,9.90
2019-01-17T06:07:06.424Z,9.50
2019-01-17T06:08:06.291Z,10.10
2019-01-17T06:09:58.968Z,10.20
2019-01-17T06:10:58.836Z,9.50
2019-01-17T06:12:51.499Z,11.80
2019-01-17T06:13:51.396Z,10.10
2019-01-17T06:15:44.064Z,10.20
2019-01-17T06:16:43.932Z,10.40
2019-01-17T06:18:36.596Z,9.90
2019-01-17T06:19:36.483Z,9.30
2019-01-17T06:21:29.158Z,10.30
2019-01-17T06:22:29.030Z,10.50
2019-01-17T06:24:21.695Z,10.40
2019-01-17T06:25:28.006Z,11.50
2019-01-17T06:27:14.253Z,11.00
2019-01-17T06:28:14.133Z,10.40
2019-01-17T06:30:06.803Z,10.90
2019-01-17T06:31:06.671Z,11.00
2019-01-17T06:32:59.340Z,11.30
2019-01-17T06:33:59.222Z,11.90
2019-01-17T06:35:51.898Z,12.70
2019-01-17T06:36:51.767Z,12.30
2019-01-17T06:38:44.429Z,11.70
2019-01-17T06:39:44.321Z,11.90
2019-01-17T06:41:36.993Z,12.30
2019-01-17T06:42:36.873Z,12.10
2019-01-17T06:44:29.652Z,12.30
2019-01-17T06:45:29.414Z,11.80
2019-01-17T06:47:22.069Z,12.90
2019-01-17T06:48:21.958Z,12.10
2019-01-17T06:50:14.640Z,12.70
2019-01-17T06:51:14.516Z,13.30
2019-01-17T06:53:07.173Z,13.40
2019-01-17T06:54:07.059Z,13.50
2019-01-17T06:55:59.739Z,13.70
2019-01-17T06:56:59.608Z,14.10
2019-01-17T06:58:52.284Z,13.90
2019-01-17T06:59:52.172Z,14.40
2019-01-17T07:01:44.846Z,14.50
2019-01-17T07:02:44.715Z,16.10
2019-01-17T07:04:37.364Z,14.30
2019-01-17T07:05:37.320Z,14.80
2019-01-17T07:07:29.923Z,15.50
2019-01-17T07:08:29.795Z,15.10
2019-01-17T07:10:22.508Z,14.90
2019-01-17T07:11:22.366Z,15.40
2019-01-17T07:13:15.034Z,14.80
2019-01-17T07:14:14.918Z,14.70
2019-01-17T07:16:07.591Z,15.90
2019-01-17T07:17:07.465Z,14.90
2019-01-17T07:19:00.127Z,16.10
2019-01-17T07:20:00.011Z,16.40
2019-01-17T07:21:52.690Z,17.10
2019-01-17T07:22:52.553Z,16.40
2019-01-17T07:24:45.222Z,15.20
2019-01-17T07:25:45.100Z,17.50
2019-01-17T07:27:37.779Z,16.60
2019-01-17T07:28:37.653Z,16.60
2019-01-17T07:30:30.334Z,15.50
2019-01-17T07:31:30.195Z,16.30
2019-01-17T07:33:22.864Z,16.60
2019-01-17T07:34:22.755Z,17.50
2019-01-17T07:36:15.431Z,16.40
2019-01-17T07:37:15.298Z,16.40
2019-01-17T07:39:07.956Z,17.20
2019-01-17T07:40:07.844Z,16.00
2019-01-17T07:42:00.518Z,16.40
2019-01-17T07:43:00.390Z,17.30
2019-01-17T07:44:53.047Z,15.90
2019-01-17T07:45:52.935Z,16.20
2019-01-17T07:47:45.608Z,15.90
2019-01-17T07:48:45.480Z,15.70
2019-01-17T07:50:38.158Z,16.30
2019-01-17T07:51:38.022Z,16.00
2019-01-17T07:53:30.686Z,17.80
2019-01-17T07:54:30.569Z,17.30
2019-01-17T07:56:23.237Z,18.10
2019-01-17T07:57:23.121Z,18.10
2019-01-17T07:59:15.767Z,16.50
2019-01-17T08:00:15.659Z,17.50
2019-01-17T08:02:08.342Z,17.60
2019-01-17T08:03:08.206Z,16.50
2019-01-17T08:05:00.907Z,16.90
2019-01-17T08:06:00.756Z,16.60
2019-01-17T08:07:53.437Z,16.70
2019-01-17T08:08:53.300Z,17.40
2019-01-17T08:10:45.977Z,15.50
2019-01-17T08:11:45.846Z,17.60
2019-01-17T08:13:38.513Z,16.70
2019-01-17T08:14:38.394Z,16.70
2019-01-17T08:16:31.088Z,18.80
2019-01-17T08:17:30.955Z,16.80
2019-01-17T08:19:23.614Z,16.70
2019-01-17T08:20:23.505Z,18.10
2019-01-17T08:22:16.191Z,17.90
2019-01-17T08:23:16.058Z,17.20
2019-01-17T08:25:08.718Z,16.40
2019-01-17T08:26:08.610Z,16.60
2019-01-17T08:28:01.283Z,17.10
2019-01-17T08:29:01.155Z,18.50
2019-01-17T08:30:53.830Z,18.00
2019-01-17T08:31:53.704Z,18.60
2019-01-17T08:33:46.368Z,18.30
2019-01-17T08:34:46.253Z,17.90
2019-01-17T08:36:38.922Z,17.70
2019-01-17T08:37:38.802Z,17.70
2019-01-17T08:39:31.462Z,17.90
2019-01-17T08:40:31.347Z,18.50
2019-01-17T08:42:24.024Z,18.40
2019-01-17T08:43:23.897Z,19.00
2019-01-17T08:45:16.575Z,19.90
2019-01-17T08:46:16.440Z,18.20
2019-01-17T08:48:09.099Z,19.20
2019-01-17T08:49:08.986Z,18.70
2019-01-17T08:51:01.669Z,19.30
2019-01-17T08:52:01.541Z,19.70
2019-01-17T08:53:54.195Z,20.90
2019-01-17T08:54:54.083Z,20.60
2019-01-17T08:56:46.752Z,20.10
2019-01-17T08:57:46.622Z,19.20
2019-01-17T08:59:39.305Z,18.50
2019-01-17T09:00:39.166Z,20.00
2019-01-17T09:02:31.825Z,19.70
2019-01-17T09:03:31.713Z,19.70
2019-01-17T09:05:24.387Z,19.10
2019-01-17T09:06:24.252Z,19.60
2019-01-17T09:08:16.918Z,20.10
2019-01-17T09:09:16.801Z,19.80
2019-01-17T09:11:09.480Z,20.70
2019-01-17T09:12:09.356Z,20.10
2019-01-17T09:14:02.010Z,20.00
2019-01-17T09:15:01.903Z,19.80
2019-01-17T09:16:54.574Z,21.50
2019-01-17T09:17:54.447Z,19.90
2019-01-17T09:19:47.128Z,21.60
2019-01-17T09:20:46.995Z,22.40
2019-01-17T09:22:39.659Z,20.60
2019-01-17T09:23:39.541Z,21.50
2019-01-17T09:25:32.216Z,21.00
2019-01-17T09:26:32.094Z,21.10
2019-01-17T09:28:24.741Z,20.10
2019-01-17T09:29:24.637Z,19.60
2019-01-17T09:31:17.312Z,19.70
2019-01-17T09:32:17.184Z,19.80
2019-01-17T09:34:09.845Z,19.20
2019-01-17T09:35:09.731Z,18.80
2019-01-17T09:37:02.414Z,19.40
2019-01-17T09:38:02.279Z,18.80
2019-01-17T09:39:54.960Z,17.10
2019-01-17T09:40:54.840Z,17.10
2019-01-17T09:42:47.505Z,17.10
2019-01-17T09:43:47.377Z,17.70
2019-01-17T09:45:40.060Z,16.30
2019-01-17T09:46:39.933Z,16.40
2019-01-17T09:48:32.598Z,15.30
2019-01-17T09:49:32.486Z,15.50
2019-01-17T09:51:25.165Z,14.70
2019-01-17T09:52:25.042Z,14.30
2019-01-17T09:54:17.746Z,14.30
2019-01-17T09:55:17.610Z,14.90
2019-01-17T09:57:10.266Z,14.00
2019-01-17T09:58:10.160Z,13.50
2019-01-17T10:00:02.838Z,14.40
2019-01-17T10:01:02.704Z,13.70
2019-01-17T10:02:55.372Z,14.10
2019-01-17T10:03:55.260Z,12.70
2019-01-17T10:05:47.987Z,12.60
2019-01-17T10:06:47.811Z,13.60
2019-01-17T10:08:40.472Z,13.20
2019-01-17T10:09:40.356Z,12.80
2019-01-17T10:11:33.039Z,12.40
2019-01-17T10:12:32.913Z,15.30
2019-01-17T10:14:25.586Z,12.20
2019-01-17T10:15:25.462Z,11.90
2019-01-17T10:17:18.123Z,13.20
2019-01-17T10:18:18.006Z,12.40
2019-01-17T10:20:10.691Z,11.70
2019-01-17T10:21:10.560Z,13.50
2019-01-17T10:23:03.223Z,10.90
2019-01-17T10:24:03.112Z,12.10
2019-01-17T10:25:55.809Z,10.30
2019-01-17T10:26:55.688Z,11.10
2019-01-17T10:28:48.346Z,12.40
2019-01-17T10:29:48.234Z,11.10
2019-01-17T10:31:40.913Z,10.90
2019-01-17T10:32:40.789Z,10.30
2019-01-17T10:34:33.471Z,12.60
2019-01-17T10:35:33.335Z,11.50
2019-01-17T10:37:26.004Z,10.60
2019-01-17T10:38:25.889Z,11.50
2019-01-17T10:40:18.577Z,10.00
2019-01-17T10:41:18.444Z,10.90
2019-01-17T10:43:11.105Z,11.60
2019-01-17T10:44:10.992Z,11.50
2019-01-17T10:46:03.675Z,10.40
2019-01-17T10:47:03.547Z,11.20
2019-01-17T10:48:56.228Z,9.60
2019-01-17T10:49:56.097Z,9.90
2019-01-17T10:51:49.514Z,9.30
2019-01-17T10:52:48.645Z,11.10
2019-01-17T10:54:41.322Z,9.20
2019-01-17T10:55:41.199Z,9.30
2019-01-17T10:57:33.861Z,7.20
2019-01-17T10:58:33.751Z,7.30
2019-01-17T11:00:26.436Z,7.50
2019-01-17T11:01:26.300Z,9.00
2019-01-17T11:03:18.966Z,9.90
2019-01-17T11:04:18.855Z,9.50
2019-01-17T11:06:11.538Z,9.20
2019-01-17T11:07:11.406Z,7.60
2019-01-17T11:09:04.078Z,9.40
2019-01-17T11:10:03.947Z,7.90
2019-01-17T11:11:56.637Z,10.90
2019-01-17T11:12:56.504Z,8.80
2019-01-17T11:14:49.181Z,7.90
2019-01-17T11:15:49.054Z,9.30
2019-01-17T11:17:41.718Z,8.50
2019-01-17T11:18:41.599Z,9.90
2019-01-17T11:20:34.290Z,8.00
2019-01-17T11:21:34.150Z,8.00
2019-01-17T11:23:26.829Z,8.60
2019-01-17T11:24:26.712Z,8.10
2019-01-17T11:26:19.390Z,9.80
2019-01-17T11:27:19.260Z,8.20
2019-01-17T11:29:11.923Z,7.40
2019-01-17T11:30:11.811Z,7.00
2019-01-17T11:32:04.489Z,7.70
2019-01-17T11:33:04.357Z,7.00
2019-01-17T11:34:57.036Z,6.80
2019-01-17T11:35:56.899Z,6.80
2019-01-17T11:37:49.560Z,6.90
2019-01-17T11:38:49.453Z,6.80
2019-01-17T11:40:42.125Z,7.10
2019-01-17T11:41:41.994Z,7.20
2019-01-17T11:43:34.692Z,7.00
2019-01-17T11:44:34.536Z,7.70
2019-01-17T11:46:27.214Z,7.50
2019-01-17T11:47:27.087Z,7.30
2019-01-17T11:49:19.752Z,8.30
2019-01-17T11:50:19.641Z,8.10
2019-01-17T11:52:12.310Z,6.90
2019-01-17T11:53:12.178Z,7.10
2019-01-17T11:55:04.838Z,5.80
2019-01-17T11:56:04.725Z,5.80
2019-01-17T11:57:57.404Z,5.50
2019-01-17T11:59:00.170Z,5.00
2019-01-17T12:00:49.958Z,5.30
2019-01-17T12:01:49.810Z,5.30
2019-01-17T12:03:42.475Z,5.40
2019-01-17T12:04:42.360Z,5.60
2019-01-17T12:06:35.101Z,5.60
2019-01-17T12:07:34.994Z,5.00
2019-01-17T12:09:27.607Z,4.90
2019-01-17T12:10:27.490Z,4.90
2019-01-17T12:12:20.173Z,4.50
2019-01-17T12:13:20.042Z,5.00
2019-01-17T12:15:12.702Z,4.60
2019-01-17T12:16:12.589Z,4.40
2019-01-17T12:18:05.263Z,4.80
2019-01-17T12:19:05.138Z,4.80
2019-01-17T12:20:57.819Z,4.80
2019-01-17T12:21:57.688Z,5.30
2019-01-17T12:23:50.340Z,5.80
2019-01-17T12:24:50.230Z,6.00
2019-01-17T12:26:47.434Z,5.80
2019-01-17T12:27:42.888Z,6.80
2019-01-17T12:29:35.450Z,5.70
2019-01-17T12:30:35.329Z,5.60
2019-01-17T12:32:28.525Z,5.10
2019-01-17T12:33:28.391Z,5.10
2019-01-17T12:35:21.049Z,5.30
2019-01-17T12:36:20.935Z,5.30
2019-01-17T12:38:13.615Z,5.60
2019-01-17T12:39:13.481Z,5.10
2019-01-17T12:41:06.151Z,6.60
2019-01-17T12:42:06.035Z,6.00
2019-01-17T12:43:58.721Z,5.10
2019-01-17T12:44:58.586Z,5.60
2019-01-17T12:46:51.287Z,5.70
2019-01-17T12:47:51.156Z,5.60
2019-01-17T12:49:43.821Z,5.60
2019-01-17T12:50:43.708Z,5.90
2019-01-17T12:52:36.385Z,6.20
2019-01-17T12:53:36.258Z,5.60
2019-01-17T12:55:28.923Z,6.30
2019-01-17T12:56:28.810Z,5.70
2019-01-17T12:58:21.491Z,5.50
2019-01-17T12:59:21.359Z,5.50
2019-01-17T13:01:14.027Z,6.40
2019-01-17T13:02:13.913Z,5.50
2019-01-17T13:04:06.596Z,5.30
2019-01-17T13:05:06.472Z,5.90
2019-01-17T13:06:59.155Z,5.50
2019-01-17T13:07:59.021Z,5.90
2019-01-17T13:09:51.675Z,6.20
2019-01-17T13:10:51.580Z,5.40
2019-01-17T13:12:44.242Z,5.50
2019-01-17T13:13:44.118Z,6.00
2019-01-17T13:15:36.782Z,5.70
2019-01-17T13:16:36.667Z,5.20
2019-01-17T13:18:29.437Z,5.40
2019-01-17T13:19:29.322Z,5.80
2019-01-17T13:21:21.970Z,5.30
2019-01-17T13:22:21.854Z,5.50
2019-01-17T13:24:14.528Z,5.70
2019-01-17T13:25:14.417Z,6.10
2019-01-17T13:27:07.058Z,4.90
2019-01-17T13:28:06.944Z,5.20
2019-01-17T13:29:59.624Z,5.40
2019-01-17T13:30:59.491Z,5.60
2019-01-17T13:32:52.167Z,4.70
2019-01-17T13:33:52.035Z,4.80
2019-01-17T13:35:44.702Z,4.10
2019-01-17T13:36:44.584Z,4.20
2019-01-17T13:38:37.266Z,4.00
2019-01-17T13:39:37.134Z,4.50
2019-01-17T13:41:29.794Z,4.40
2019-01-17T13:42:29.681Z,3.70
2019-01-17T13:44:22.364Z,4.10
2019-01-17T13:45:22.992Z,4.20
2019-01-17T13:47:14.911Z,4.10
2019-01-17T13:48:14.781Z,4.20
2019-01-17T13:50:07.439Z,4.40
2019-01-17T13:51:07.323Z,3.80
2019-01-17T13:53:00.000Z,4.30
2019-01-17T13:53:59.872Z,3.30
2019-01-17T13:55:52.531Z,3.90
2019-01-17T13:56:52.414Z,3.90
2019-01-17T13:58:45.094Z,3.00
2019-01-17T13:59:44.963Z,3.00
2019-01-17T14:01:37.621Z,2.70
2019-01-17T14:02:37.509Z,3.00
2019-01-17T14:04:30.184Z,3.40
2019-01-17T14:05:30.052Z,3.00
2019-01-17T14:07:22.728Z,3.20
2019-01-17T14:08:22.599Z,3.20
2019-01-17T14:10:15.255Z,3.00
2019-01-17T14:11:15.138Z,2.90
2019-01-17T14:13:07.810Z,3.50
2019-01-17T14:14:07.688Z,3.10
2019-01-17T14:16:00.341Z,3.00
2019-01-17T14:17:00.219Z,2.90
2019-01-17T14:18:52.894Z,2.90
2019-01-17T14:19:52.768Z,2.80
2019-01-17T14:21:45.430Z,3.00
2019-01-17T14:22:45.316Z,2.70
2019-01-17T14:24:38.008Z,3.00
2019-01-17T14:25:37.860Z,3.30
2019-01-17T14:27:30.536Z,2.90
2019-01-17T14:28:30.404Z,2.60
2019-01-17T14:30:23.064Z,2.80
2019-01-17T14:31:22.947Z,3.70
2019-01-17T14:33:15.623Z,4.50
2019-01-17T14:34:15.492Z,3.10
2019-01-17T14:36:08.150Z,6.00
2019-01-17T14:37:08.042Z,3.30
2019-01-17T14:39:00.715Z,2.60
2019-01-17T14:40:00.589Z,2.90
2019-01-17T14:41:53.265Z,3.50
2019-01-17T14:42:53.136Z,3.60
2019-01-17T14:44:45.794Z,2.60
2019-01-17T14:45:45.680Z,2.80
2019-01-17T14:47:38.346Z,5.30
2019-01-17T14:48:38.224Z,7.00
2019-01-17T14:50:30.888Z,3.60
2019-01-17T14:51:30.767Z,3.80
2019-01-17T14:53:23.441Z,5.00
2019-01-17T14:54:23.311Z,3.70
2019-01-17T14:56:15.993Z,5.10
2019-01-17T14:57:20.552Z,3.80
2019-01-17T14:59:08.515Z,4.50
2019-01-17T15:00:08.402Z,6.00
2019-01-17T15:02:01.072Z,6.60
2019-01-17T15:03:00.951Z,4.60
2019-01-17T15:04:53.606Z,4.00
2019-01-17T15:05:53.489Z,7.20
2019-01-17T15:07:46.163Z,4.80
2019-01-17T15:08:46.034Z,3.30
2019-01-17T15:10:38.709Z,8.00
2019-01-17T15:11:38.594Z,8.50
2019-01-17T15:13:31.284Z,4.90
2019-01-17T15:14:31.156Z,4.00
2019-01-17T15:16:23.831Z,4.40
2019-01-17T15:17:23.718Z,5.10
2019-01-17T15:19:16.355Z,5.90
2019-01-17T15:20:16.233Z,4.90
2019-01-17T15:22:09.007Z,3.20
2019-01-17T15:23:08.868Z,3.70
2019-01-17T15:25:01.545Z,3.30
2019-01-17T15:26:01.415Z,3.10
2019-01-17T15:27:54.095Z,2.80
2019-01-17T15:28:53.960Z,3.30
2019-01-17T15:30:46.621Z,5.20
2019-01-17T15:31:46.502Z,3.90
2019-01-17T15:33:39.178Z,5.40
2019-01-17T15:34:39.045Z,5.30
2019-01-17T15:36:31.702Z,4.70
2019-01-17T15:37:31.595Z,4.70
2019-01-17T15:39:24.266Z,6.30
2019-01-17T15:40:24.134Z,6.60
2019-01-17T15:42:16.850Z,4.90
2019-01-17T15:43:16.755Z,5.50
2019-01-17T15:45:09.339Z,7.20
2019-01-17T15:46:09.220Z,4.70
2019-01-17T15:48:01.899Z,4.90
2019-01-17T15:49:01.765Z,6.30
2019-01-17T15:50:54.431Z,5.00
2019-01-17T15:51:54.315Z,8.20
2019-01-17T15:53:46.994Z,6.60
2019-01-17T15:54:46.862Z,5.90
2019-01-17T15:56:39.524Z,6.70
2019-01-17T15:57:39.405Z,5.40
2019-01-17T15:59:32.079Z,6.00
2019-01-17T16:00:31.949Z,5.60
2019-01-17T16:02:24.607Z,6.40
2019-01-17T16:03:24.495Z,5.80
2019-01-17T16:05:17.171Z,5.10
2019-01-17T16:06:17.033Z,7.90
2019-01-17T16:08:09.726Z,6.40
2019-01-17T16:09:09.634Z,5.00
2019-01-17T16:11:02.253Z,8.60
2019-01-17T16:12:02.135Z,5.80
2019-01-17T16:13:54.879Z,8.60
2019-01-17T16:14:54.676Z,10.80
2019-01-17T16:16:48.351Z,8.60
2019-01-17T16:17:47.224Z,6.60
2019-01-17T16:19:39.901Z,13.40
2019-01-17T16:20:39.766Z,8.70
2019-01-17T16:22:32.429Z,6.20
2019-01-17T16:23:32.341Z,6.70
2019-01-17T16:25:24.993Z,11.00
2019-01-17T16:26:24.861Z,8.00
2019-01-17T16:28:17.518Z,8.80
2019-01-17T16:29:17.403Z,7.00
2019-01-17T16:31:10.078Z,6.40
2019-01-17T16:32:09.950Z,5.20
2019-01-17T16:34:02.644Z,7.90
2019-01-17T16:35:02.496Z,6.50
2019-01-17T16:36:55.187Z,8.40
2019-01-17T16:37:55.039Z,6.80
2019-01-17T16:39:47.709Z,6.20
2019-01-17T16:40:47.578Z,8.30
2019-01-17T16:42:40.240Z,6.50
2019-01-17T16:43:40.120Z,6.30
2019-01-17T16:45:35.629Z,7.50
2019-01-17T16:46:32.669Z,4.80
2019-01-17T16:48:25.319Z,8.50
2019-01-17T16:49:25.205Z,9.00
2019-01-17T16:51:17.881Z,5.50
2019-01-17T16:52:17.755Z,4.90
2019-01-17T16:54:10.433Z,6.70
2019-01-17T16:55:10.295Z,9.00
2019-01-17T16:57:02.959Z,5.70
2019-01-17T16:58:02.839Z,6.80
2019-01-17T16:59:55.515Z,8.00
2019-01-17T17:00:55.384Z,6.00
2019-01-17T17:02:48.048Z,7.50
2019-01-17T17:03:47.932Z,9.70
2019-01-17T17:05:40.617Z,8.10
2019-01-17T17:06:40.476Z,7.70
2019-01-17T17:08:33.139Z,9.70
2019-01-17T17:09:33.021Z,6.00
2019-01-17T17:11:25.693Z,5.40
2019-01-17T17:12:25.566Z,5.90
2019-01-17T17:14:18.232Z,7.00
2019-01-17T17:15:18.108Z,9.50
2019-01-17T17:17:10.782Z,12.30
2019-01-17T17:18:10.669Z,6.20
2019-01-17T17:20:03.316Z,7.30
2019-01-17T17:21:03.194Z,9.20
2019-01-17T17:22:55.892Z,7.80
2019-01-17T17:23:55.766Z,6.60
2019-01-17T17:25:48.443Z,8.70
2019-01-17T17:26:48.302Z,11.90
2019-01-17T17:28:40.963Z,13.40
2019-01-17T17:29:40.847Z,11.20
2019-01-17T17:31:33.524Z,9.10
2019-01-17T17:32:33.393Z,9.00
2019-01-17T17:34:26.051Z,8.90
2019-01-17T17:35:25.935Z,6.80
2019-01-17T17:37:18.606Z,8.90
2019-01-17T17:38:18.477Z,9.20
2019-01-17T17:40:11.197Z,8.30
2019-01-17T17:41:11.049Z,8.30
2019-01-17T17:43:03.722Z,7.20
2019-01-17T17:44:03.601Z,7.60
2019-01-17T17:45:56.251Z,7.40
2019-01-17T17:46:57.436Z,7.80
2019-01-17T17:48:48.827Z,9.30
2019-01-17T17:49:48.712Z,6.00
2019-01-17T17:51:41.363Z,7.40
2019-01-17T17:52:41.235Z,9.00
2019-01-17T17:54:33.895Z,10.50
2019-01-17T17:55:33.781Z,10.50
2019-01-17T17:57:26.452Z,7.80
2019-01-17T17:58:26.325Z,8.50
2019-01-17T18:00:18.980Z,9.00
2019-01-17T18:01:18.872Z,6.70
2019-01-17T18:03:11.540Z,7.00
2019-01-17T18:04:11.414Z,7.10
2019-01-17T18:06:04.069Z,8.50
2019-01-17T18:07:03.959Z,6.20
2019-01-17T18:08:56.638Z,8.00
2019-01-17T18:09:56.509Z,7.00
2019-01-17T18:11:49.202Z,9.90
2019-01-17T18:12:49.069Z,7.40
2019-01-17T18:14:41.780Z,7.40
2019-01-17T18:15:41.613Z,10.10
2019-01-17T18:17:34.287Z,6.10
2019-01-17T18:18:34.154Z,9.20
2019-01-17T18:20:26.810Z,5.70
2019-01-17T18:21:26.696Z,5.80
2019-01-17T18:23:19.381Z,8.00
2019-01-17T18:24:19.249Z,7.10
2019-01-17T18:26:11.922Z,6.00
2019-01-17T18:27:11.794Z,7.40
2019-01-17T18:29:04.471Z,6.60
2019-01-17T18:30:04.339Z,8.30
2019-01-17T18:31:57.015Z,6.40
2019-01-17T18:32:56.888Z,5.20
2019-01-17T18:34:49.541Z,7.60
2019-01-17T18:35:49.433Z,5.60
2019-01-17T18:37:42.107Z,6.60
2019-01-17T18:38:41.973Z,5.40
2019-01-17T18:40:34.629Z,5.50
2019-01-17T18:41:34.623Z,5.40
2019-01-17T18:43:27.191Z,6.30
2019-01-17T18:44:27.066Z,6.60
2019-01-17T18:46:19.748Z,8.20
2019-01-17T18:47:19.616Z,6.60
2019-01-17T18:49:12.275Z,8.40
2019-01-17T18:50:12.157Z,5.70
2019-01-17T18:52:04.841Z,5.50
2019-01-17T18:53:04.709Z,6.60
2019-01-17T18:54:57.367Z,7.90
2019-01-17T18:55:57.254Z,6.20
2019-01-17T18:57:49.928Z,6.40
2019-01-17T18:58:49.797Z,9.00
2019-01-17T19:00:42.455Z,4.50
2019-01-17T19:01:42.344Z,5.40
2019-01-17T19:03:35.024Z,5.40
2019-01-17T19:04:34.897Z,6.10
2019-01-17T19:06:27.577Z,5.10
2019-01-17T19:07:27.448Z,6.10
2019-01-17T19:09:20.099Z,5.80
2019-01-17T19:10:20.079Z,5.10
2019-01-17T19:12:12.655Z,7.00
2019-01-17T19:13:12.537Z,7.00
2019-01-17T19:15:05.187Z,5.20
2019-01-17T19:16:05.074Z,8.90
2019-01-17T19:17:57.747Z,5.20
2019-01-17T19:18:57.620Z,4.60
2019-01-17T19:20:50.302Z,5.60
2019-01-17T19:21:50.173Z,6.90
2019-01-17T19:23:42.836Z,5.30
2019-01-17T19:24:42.714Z,6.60
2019-01-17T19:26:35.387Z,5.60
2019-01-17T19:27:35.255Z,4.50
2019-01-17T19:29:27.908Z,6.40
2019-01-17T19:30:27.846Z,6.00
2019-01-17T19:32:20.470Z,5.40
2019-01-17T19:33:20.345Z,7.60
2019-01-17T19:35:13.024Z,6.60
2019-01-17T19:36:12.891Z,5.50
2019-01-17T19:38:05.558Z,6.50
2019-01-17T19:39:05.445Z,4.60
2019-01-17T19:40:58.126Z,4.80
2019-01-17T19:41:57.995Z,4.90
2019-01-17T19:43:50.655Z,5.70
2019-01-17T19:44:50.542Z,6.30
2019-01-17T19:46:43.209Z,5.50
2019-01-17T19:47:43.085Z,5.80
2019-01-17T19:49:35.749Z,6.20
2019-01-17T19:50:35.636Z,5.30
2019-01-17T19:52:28.308Z,5.30
2019-01-17T19:53:28.181Z,4.70
2019-01-17T19:55:20.862Z,5.60
2019-01-17T19:56:20.731Z,6.00
2019-01-17T19:58:13.385Z,6.70
2019-01-17T19:59:13.271Z,4.00
2019-01-17T20:01:05.940Z,5.50
2019-01-17T20:02:05.815Z,5.50
2019-01-17T20:03:58.475Z,4.90
2019-01-17T20:04:58.382Z,4.70
2019-01-17T20:06:51.031Z,7.20
2019-01-17T20:07:50.899Z,5.50
2019-01-17T20:09:43.595Z,4.90
2019-01-17T20:10:43.450Z,5.40
2019-01-17T20:12:36.119Z,7.20
2019-01-17T20:13:35.996Z,6.80
2019-01-17T20:15:28.702Z,5.50
2019-01-17T20:16:28.557Z,4.70
2019-01-17T20:18:21.222Z,5.90
2019-01-17T20:19:21.103Z,4.90
2019-01-17T20:21:13.898Z,5.00
2019-01-17T20:22:13.645Z,5.20
2019-01-17T20:24:06.315Z,4.40
2019-01-17T20:25:06.228Z,5.40
2019-01-17T20:26:58.853Z,4.90
2019-01-17T20:27:58.726Z,4.00
2019-01-17T20:29:51.407Z,4.30
2019-01-17T20:30:51.272Z,4.20
2019-01-17T20:32:44.427Z,4.60
2019-01-17T20:33:44.300Z,5.30
2019-01-17T20:35:37.258Z,5.80
2019-01-17T20:36:36.855Z,5.20
2019-01-17T20:38:29.524Z,5.90
2019-01-17T20:39:29.411Z,4.40
2019-01-17T20:41:22.082Z,5.40
2019-01-17T20:42:21.951Z,6.70
2019-01-17T20:44:14.637Z,5.70
2019-01-17T20:45:14.526Z,5.70
2019-01-17T20:47:07.198Z,5.80
2019-01-17T20:48:07.076Z,5.50
2019-01-17T20:49:59.758Z,5.70
2019-01-17T20:50:59.634Z,6.60
2019-01-17T20:52:52.299Z,4.30
2019-01-17T20:53:52.182Z,4.70
2019-01-17T20:55:44.851Z,5.70
2019-01-17T20:56:44.724Z,6.10
2019-01-17T20:58:42.286Z,6.10
2019-01-17T20:59:37.277Z,7.40
2019-01-17T21:01:29.948Z,5.70
2019-01-17T21:02:29.834Z,5.20
2019-01-17T21:04:22.472Z,7.20
2019-01-17T21:05:22.358Z,5.90
2019-01-17T21:07:15.032Z,5.90
2019-01-17T21:08:14.905Z,6.50
2019-01-17T21:10:07.578Z,4.70
2019-01-17T21:11:07.439Z,6.90
2019-01-17T21:13:00.093Z,5.80
2019-01-17T21:14:00.786Z,6.70
2019-01-17T21:15:52.677Z,7.80
2019-01-17T21:16:52.533Z,5.50
2019-01-17T21:18:45.199Z,5.30
2019-01-17T21:19:45.074Z,5.40
2019-01-17T21:21:37.754Z,5.10
2019-01-17T21:22:37.615Z,4.90
2019-01-17T21:24:30.275Z,6.40
2019-01-17T21:25:30.166Z,7.10
2019-01-17T21:27:22.832Z,7.70
2019-01-17T21:28:22.698Z,5.00
2019-01-17T21:30:15.379Z,4.70
2019-01-17T21:31:15.248Z,4.60
2019-01-17T21:33:08.275Z,4.80
2019-01-17T21:34:07.785Z,5.80
2019-01-17T21:36:00.457Z,6.00
2019-01-17T21:37:00.327Z,4.70
2019-01-17T21:38:52.981Z,4.60
2019-01-17T21:39:52.872Z,4.60
2019-01-17T21:41:45.550Z,4.10
2019-01-17T21:42:45.414Z,5.90
2019-01-17T21:44:38.087Z,6.40
2019-01-17T21:45:37.950Z,5.10
2019-01-17T21:47:30.701Z,6.40
2019-01-17T21:48:30.498Z,5.40
2019-01-17T21:50:23.175Z,6.20
2019-01-17T21:51:23.042Z,6.00
2019-01-17T21:53:15.980Z,6.20
2019-01-17T21:54:15.610Z,5.20
2019-01-17T21:56:08.309Z,5.20
2019-01-17T21:57:08.349Z,5.10
2019-01-17T21:59:01.339Z,5.10
2019-01-17T22:00:01.234Z,7.10
2019-01-17T22:01:53.945Z,4.90
2019-01-17T22:02:53.770Z,6.80
2019-01-17T22:04:46.431Z,7.10
2019-01-17T22:05:46.309Z,7.90
2019-01-17T22:07:38.982Z,5.30
2019-01-17T22:08:38.856Z,5.50
2019-01-17T22:10:31.518Z,4.90
2019-01-17T22:11:31.388Z,5.70
2019-01-17T22:13:24.061Z,5.80
2019-01-17T22:14:23.943Z,3.80
2019-01-17T22:16:16.619Z,4.00
2019-01-17T22:17:16.486Z,5.60
2019-01-17T22:19:09.140Z,5.20
2019-01-17T22:20:09.031Z,4.80
2019-01-17T22:22:01.700Z,4.80
2019-01-17T22:23:01.564Z,5.70
2019-01-17T22:24:54.260Z,5.40
2019-01-17T22:25:54.108Z,6.20
2019-01-17T22:27:46.781Z,5.60
2019-01-17T22:28:46.659Z,5.70
2019-01-17T22:30:39.327Z,6.30
2019-01-17T22:31:39.192Z,4.70
2019-01-17T22:33:31.852Z,6.20
2019-01-17T22:34:31.743Z,5.10
2019-01-17T22:36:24.415Z,4.50
2019-01-17T22:37:24.287Z,5.10
2019-01-17T22:39:16.943Z,6.40
2019-01-17T22:40:16.828Z,7.00
2019-01-17T22:42:09.503Z,6.60
2019-01-17T22:43:09.370Z,4.20
2019-01-17T22:45:02.041Z,5.30
2019-01-17T22:46:01.909Z,5.80
2019-01-17T22:47:54.569Z,6.80
2019-01-17T22:48:54.451Z,5.40
2019-01-17T22:50:47.122Z,7.20
2019-01-17T22:51:46.993Z,5.40
2019-01-17T22:53:39.658Z,6.80
2019-01-17T22:54:39.542Z,6.80
2019-01-17T22:56:32.214Z,5.90
2019-01-17T22:57:32.085Z,3.70
2019-01-17T22:59:24.756Z,5.30
